createdAt,value
2023-09-27T00:01:36.507Z,8.03
2023-09-27T00:04:05.704Z,7.60
2023-09-27T00:06:34.280Z,8.20
2023-09-27T00:09:05.546Z,7.90
2023-09-27T00:11:33.972Z,10.33
2023-09-27T00:14:02.494Z,8.27
2023-09-27T00:16:31.018Z,8.17
2023-09-27T00:18:59.529Z,8.47
2023-09-27T00:21:27.935Z,8.80
2023-09-27T00:23:56.378Z,8.43
2023-09-27T00:26:26.458Z,9.00
2023-09-27T00:28:55.173Z,9.23
2023-09-27T00:31:24.007Z,9.20
2023-09-27T00:33:52.512Z,7.93
2023-09-27T00:36:21.070Z,11.20
2023-09-27T00:38:49.538Z,9.50
2023-09-27T00:41:18.098Z,8.70
2023-09-27T00:43:47.978Z,9.07
2023-09-27T00:46:18.455Z,8.73
2023-09-27T00:48:47.465Z,10.87
2023-09-27T00:51:18.632Z,8.83
2023-09-27T00:53:50.089Z,8.00
2023-09-27T00:56:18.815Z,9.53
2023-09-27T00:58:49.450Z,9.67
2023-09-27T01:01:18.342Z,8.13
2023-09-27T01:03:47.724Z,8.40
2023-09-27T01:06:16.544Z,10.83
2023-09-27T01:08:45.076Z,7.73
2023-09-27T01:11:13.817Z,7.93
2023-09-27T01:13:42.271Z,8.13
2023-09-27T01:16:12.108Z,7.67
2023-09-27T01:18:41.037Z,9.83
2023-09-27T01:21:09.518Z,8.07
2023-09-27T01:23:42.103Z,8.07
2023-09-27T01:26:13.169Z,7.23
2023-09-27T01:28:43.796Z,7.97
2023-09-27T01:31:12.249Z,8.10
2023-09-27T01:33:41.255Z,6.93
2023-09-27T01:36:10.128Z,7.30
2023-09-27T01:38:40.239Z,7.93
2023-09-27T01:41:08.688Z,8.37
2023-09-27T01:43:37.209Z,7.40
2023-09-27T01:46:05.929Z,7.30
2023-09-27T01:48:34.412Z,8.07
2023-09-27T01:51:03.088Z,7.90
2023-09-27T01:53:31.650Z,7.67
2023-09-27T01:56:03.718Z,9.43
2023-09-27T01:58:32.137Z,9.10
2023-09-27T02:01:01.132Z,7.23
2023-09-27T02:03:29.667Z,6.93
2023-09-27T02:06:00.127Z,7.60
2023-09-27T02:08:28.710Z,7.63
2023-09-27T02:10:57.222Z,7.40
2023-09-27T02:13:27.010Z,7.90
2023-09-27T02:15:56.770Z,7.97
2023-09-27T02:18:25.238Z,7.27
2023-09-27T02:20:54.256Z,7.57
2023-09-27T02:23:22.739Z,7.47
2023-09-27T02:25:59.698Z,8.33
2023-09-27T02:28:29.575Z,7.80
2023-09-27T02:30:59.427Z,7.80
2023-09-27T02:33:28.874Z,8.97
2023-09-27T02:35:57.366Z,6.40
2023-09-27T02:38:27.113Z,7.63
2023-09-27T02:40:55.587Z,7.80
2023-09-27T02:43:24.175Z,7.63
2023-09-27T02:45:53.995Z,6.73
2023-09-27T02:48:22.583Z,6.83
2023-09-27T02:50:51.542Z,7.37
2023-09-27T02:53:20.044Z,6.73
2023-09-27T02:55:48.615Z,8.27
2023-09-27T02:58:17.513Z,7.20
2023-09-27T03:00:45.953Z,7.50
2023-09-27T03:03:15.897Z,6.87
2023-09-27T03:05:44.960Z,7.40
2023-09-27T03:08:13.732Z,7.37
2023-09-27T03:10:43.069Z,8.17
2023-09-27T03:13:12.603Z,6.97
2023-09-27T03:15:41.890Z,7.63
2023-09-27T03:18:10.465Z,6.23
2023-09-27T03:20:40.316Z,7.50
2023-09-27T03:23:08.964Z,9.13
2023-09-27T03:25:37.456Z,6.90
2023-09-27T03:28:06.353Z,6.77
2023-09-27T03:30:35.250Z,7.57
2023-09-27T03:33:03.795Z,8.13
2023-09-27T03:35:32.835Z,6.80
2023-09-27T03:38:02.748Z,7.53
2023-09-27T03:40:31.229Z,7.90
2023-09-27T03:42:59.961Z,7.20
2023-09-27T03:45:28.471Z,6.60
2023-09-27T03:47:56.957Z,7.17
2023-09-27T03:50:25.484Z,6.73
2023-09-27T03:52:58.858Z,6.83
2023-09-27T03:55:29.477Z,7.40
2023-09-27T03:57:57.966Z,11.53
2023-09-27T04:00:27.515Z,6.97
2023-09-27T04:02:56.200Z,7.17
2023-09-27T04:05:27.565Z,7.30
2023-09-27T04:07:56.101Z,7.90
2023-09-27T04:10:25.762Z,8.73
2023-09-27T04:12:55.681Z,11.10
2023-09-27T04:15:24.602Z,9.37
2023-09-27T04:17:53.123Z,8.33
2023-09-27T04:20:22.732Z,8.50
2023-09-27T04:22:51.688Z,12.10
2023-09-27T04:25:20.962Z,8.97
2023-09-27T04:27:52.012Z,8.93
2023-09-27T04:30:23.960Z,9.37
2023-09-27T04:32:53.932Z,9.83
2023-09-27T04:35:23.285Z,10.27
2023-09-27T04:37:52.198Z,8.67
2023-09-27T04:40:21.035Z,9.17
2023-09-27T04:42:50.096Z,9.77
2023-09-27T04:45:18.794Z,8.20
2023-09-27T04:47:49.010Z,8.47
2023-09-27T04:50:17.788Z,8.30
2023-09-27T04:52:46.910Z,8.37
2023-09-27T04:55:15.965Z,9.03
2023-09-27T04:57:44.679Z,9.43
2023-09-27T05:00:19.548Z,10.33
2023-09-27T05:02:49.511Z,9.70
2023-09-27T05:05:18.495Z,9.73
2023-09-27T05:07:47.167Z,10.03
2023-09-27T05:10:15.925Z,13.10
2023-09-27T05:12:44.449Z,13.33
2023-09-27T05:15:13.197Z,10.33
2023-09-27T05:17:41.818Z,11.97
2023-09-27T05:20:13.564Z,9.93
2023-09-27T05:22:43.046Z,8.73
2023-09-27T05:25:11.822Z,10.17
2023-09-27T05:27:40.759Z,8.93
2023-09-27T05:30:10.149Z,9.37
2023-09-27T05:32:38.937Z,8.73
2023-09-27T05:35:08.408Z,8.90
2023-09-27T05:37:38.231Z,12.53
2023-09-27T05:40:10.359Z,12.23
2023-09-27T05:42:39.201Z,9.50
2023-09-27T05:45:11.548Z,9.37
2023-09-27T05:47:40.742Z,9.03
2023-09-27T05:50:10.733Z,9.20
2023-09-27T05:52:44.351Z,11.23
2023-09-27T05:55:12.854Z,9.53
2023-09-27T05:57:41.523Z,9.00
2023-09-27T06:00:16.079Z,12.60
2023-09-27T06:02:45.007Z,9.70
2023-09-27T06:05:13.853Z,12.27
2023-09-27T06:07:44.311Z,11.53
2023-09-27T06:10:12.856Z,8.83
2023-09-27T06:12:41.344Z,10.97
2023-09-27T06:15:13.305Z,11.30
2023-09-27T06:17:43.352Z,10.57
2023-09-27T06:20:13.548Z,12.40
2023-09-27T06:22:45.361Z,11.63
2023-09-27T06:25:14.632Z,12.30
2023-09-27T06:27:44.287Z,15.53
2023-09-27T06:30:14.007Z,16.43
2023-09-27T06:32:42.604Z,13.23
2023-09-27T06:35:15.344Z,16.77
2023-09-27T06:37:50.410Z,14.87
2023-09-27T06:40:23.206Z,13.30
2023-09-27T06:42:51.948Z,14.60
2023-09-27T06:45:20.947Z,15.63
2023-09-27T06:47:49.996Z,11.70
2023-09-27T06:50:20.243Z,12.83
2023-09-27T06:52:51.968Z,13.47
2023-09-27T06:55:24.011Z,16.57
2023-09-27T06:57:53.583Z,13.07
2023-09-27T07:00:25.472Z,14.70
2023-09-27T07:02:54.793Z,13.10
2023-09-27T07:05:24.107Z,16.13
2023-09-27T07:07:55.636Z,14.50
2023-09-27T07:10:25.358Z,12.70
2023-09-27T07:12:54.205Z,13.60
2023-09-27T07:15:23.385Z,11.30
2023-09-27T07:17:52.148Z,12.10
2023-09-27T07:20:28.142Z,12.60
2023-09-27T07:22:58.177Z,12.60
2023-09-27T07:25:29.689Z,11.70
2023-09-27T07:27:58.177Z,11.93
2023-09-27T07:30:26.894Z,13.87
2023-09-27T07:32:56.499Z,10.57
2023-09-27T07:35:29.876Z,9.83
2023-09-27T07:38:02.037Z,11.50
2023-09-27T07:40:30.795Z,9.63
2023-09-27T07:42:59.855Z,10.53
2023-09-27T07:45:31.948Z,10.37
2023-09-27T07:48:01.108Z,10.60
2023-09-27T07:50:32.611Z,9.97
2023-09-27T07:53:04.723Z,10.50
2023-09-27T07:55:35.052Z,9.07
2023-09-27T07:58:05.098Z,8.73
2023-09-27T08:00:34.307Z,11.90
2023-09-27T08:03:04.205Z,9.23
2023-09-27T08:05:32.862Z,9.13
2023-09-27T08:08:02.803Z,8.20
2023-09-27T08:10:33.555Z,9.20
2023-09-27T08:13:02.048Z,8.53
2023-09-27T08:15:29.628Z,10.70
2023-09-27T08:17:58.665Z,10.17
2023-09-27T08:20:28.179Z,9.53
2023-09-27T08:22:57.061Z,8.00
2023-09-27T08:25:26.945Z,9.70
2023-09-27T08:27:55.449Z,12.23
2023-09-27T08:30:24.140Z,13.07
2023-09-27T08:32:53.572Z,14.53
2023-09-27T08:35:22.105Z,9.67
2023-09-27T08:37:50.662Z,9.80
2023-09-27T08:40:20.156Z,9.10
2023-09-27T08:42:53.491Z,9.77
2023-09-27T08:45:24.429Z,9.93
2023-09-27T08:47:53.385Z,8.23
2023-09-27T08:50:22.928Z,9.47
2023-09-27T08:52:52.739Z,9.37
2023-09-27T08:55:22.237Z,10.03
2023-09-27T08:57:53.097Z,7.87
2023-09-27T09:00:24.843Z,9.00
2023-09-27T09:03:00.001Z,8.67
2023-09-27T09:05:31.101Z,9.07
2023-09-27T09:08:01.720Z,9.33
2023-09-27T09:10:30.819Z,8.47
2023-09-27T09:13:01.742Z,7.23
2023-09-27T09:15:37.456Z,10.73
2023-09-27T09:18:09.946Z,8.67
2023-09-27T09:20:51.614Z,6.57
2023-09-27T09:23:31.339Z,8.53
2023-09-27T09:26:00.435Z,8.20
2023-09-27T09:28:30.767Z,6.30
2023-09-27T09:30:59.687Z,4.93
2023-09-27T09:33:29.769Z,6.60
2023-09-27T09:35:58.733Z,5.60
2023-09-27T09:38:30.339Z,5.43
2023-09-27T09:40:59.935Z,5.33
2023-09-27T09:43:34.684Z,5.73
2023-09-27T09:46:05.124Z,5.80
2023-09-27T09:48:35.511Z,7.73
2023-09-27T09:51:07.735Z,8.53
2023-09-27T09:53:40.141Z,6.60
2023-09-27T09:56:29.936Z,8.17
2023-09-27T09:59:04.314Z,6.23
2023-09-27T10:01:38.252Z,8.63
2023-09-27T10:04:08.758Z,6.43
2023-09-27T10:09:29.992Z,5.77
2023-09-27T10:11:59.234Z,4.33
2023-09-27T10:14:30.280Z,6.30
2023-09-27T10:16:58.887Z,5.47
2023-09-27T10:19:29.029Z,4.80
2023-09-27T10:22:06.966Z,5.17
2023-09-27T10:24:37.006Z,7.03
2023-09-27T10:27:05.666Z,7.27
2023-09-27T10:29:59.173Z,5.70
2023-09-27T10:32:29.332Z,10.10
2023-09-27T10:35:16.721Z,8.47
2023-09-27T10:38:05.554Z,13.33
2023-09-27T10:40:43.487Z,9.83
2023-09-27T10:43:12.309Z,7.53
2023-09-27T10:45:42.358Z,8.13
2023-09-27T10:48:19.877Z,6.70
2023-09-27T10:50:54.143Z,7.50
2023-09-27T10:53:22.839Z,6.97
2023-09-27T10:55:51.612Z,8.10
2023-09-27T10:58:20.655Z,11.53
2023-09-27T11:00:55.846Z,7.23
2023-09-27T11:03:26.028Z,7.10
2023-09-27T11:05:54.759Z,5.37
2023-09-27T11:08:24.776Z,5.30
2023-09-27T11:10:57.085Z,7.47
2023-09-27T11:13:26.727Z,3.50
2023-09-27T11:16:08.215Z,4.33
2023-09-27T11:18:36.931Z,5.33
2023-09-27T11:21:10.548Z,6.53
2023-09-27T11:23:53.856Z,3.93
2023-09-27T11:26:22.858Z,5.20
2023-09-27T11:28:59.153Z,7.60
2023-09-27T11:31:30.783Z,4.63
2023-09-27T11:34:16.722Z,4.23
2023-09-27T11:36:47.098Z,3.27
2023-09-27T11:39:16.137Z,3.50
2023-09-27T11:41:46.333Z,5.10
2023-09-27T11:44:18.915Z,11.33
2023-09-27T11:46:51.176Z,8.30
2023-09-27T11:49:20.509Z,12.43
2023-09-27T11:51:49.066Z,4.00
2023-09-27T11:54:18.164Z,6.23
2023-09-27T11:56:48.308Z,4.60
2023-09-27T11:59:17.039Z,4.87
2023-09-27T12:01:45.599Z,4.20
2023-09-27T12:04:15.575Z,3.00
2023-09-27T12:06:44.661Z,3.70
2023-09-27T12:09:13.369Z,3.10
2023-09-27T12:11:41.888Z,3.83
2023-09-27T12:14:10.429Z,4.40
2023-09-27T12:16:39.026Z,3.30
2023-09-27T12:19:07.541Z,4.13
2023-09-27T12:21:38.353Z,5.67
2023-09-27T12:24:07.734Z,3.13
2023-09-27T12:26:37.599Z,4.73
2023-09-27T12:29:06.228Z,3.30
2023-09-27T12:31:34.750Z,4.53
2023-09-27T12:34:03.268Z,4.07
2023-09-27T12:36:31.752Z,4.63
2023-09-27T12:39:03.595Z,2.67
2023-09-27T12:41:32.197Z,4.90
2023-09-27T12:44:01.542Z,4.30
2023-09-27T12:46:30.629Z,4.53
2023-09-27T12:49:00.312Z,4.13
2023-09-27T12:51:35.162Z,2.60
2023-09-27T12:54:14.608Z,2.63
2023-09-27T12:56:43.919Z,3.33
2023-09-27T12:59:12.660Z,3.17
2023-09-27T13:01:41.251Z,3.90
2023-09-27T13:04:10.723Z,4.33
2023-09-27T13:06:39.504Z,3.23
2023-09-27T13:09:08.139Z,3.27
2023-09-27T13:11:38.228Z,4.57
2023-09-27T13:14:06.811Z,4.70
2023-09-27T13:16:35.318Z,3.40
2023-09-27T13:19:03.897Z,3.90
2023-09-27T13:21:32.449Z,5.63
2023-09-27T13:24:00.948Z,6.13
2023-09-27T13:26:29.500Z,4.13
2023-09-27T13:28:59.310Z,5.43
2023-09-27T13:31:32.994Z,5.17
2023-09-27T13:34:10.134Z,9.97
2023-09-27T13:36:42.013Z,11.50
2023-09-27T13:39:15.469Z,5.03
2023-09-27T13:41:45.917Z,5.07
2023-09-27T13:44:16.599Z,5.50
2023-09-27T13:46:45.481Z,5.37
2023-09-27T13:49:14.061Z,3.30
2023-09-27T13:51:43.426Z,4.28
2023-09-27T13:54:13.075Z,4.05
2023-09-27T13:56:41.658Z,13.90
2023-09-27T13:59:10.285Z,10.60
2023-09-27T14:01:40.552Z,7.20
2023-09-27T14:04:09.855Z,5.70
2023-09-27T14:06:38.458Z,6.25
2023-09-27T14:09:07.204Z,6.35
2023-09-27T14:11:36.749Z,7.57
2023-09-27T14:14:05.277Z,5.10
2023-09-27T14:16:33.915Z,5.13
2023-09-27T14:19:05.307Z,12.90
2023-09-27T14:21:34.197Z,6.05
2023-09-27T14:24:02.871Z,7.57
2023-09-27T14:26:31.480Z,5.72
2023-09-27T14:29:00.124Z,6.38
2023-09-27T14:31:29.398Z,4.97
2023-09-27T14:34:02.042Z,6.18
2023-09-27T14:36:33.790Z,6.32
2023-09-27T14:39:02.692Z,9.45
2023-09-27T14:41:32.871Z,4.53
2023-09-27T14:44:01.423Z,5.80
2023-09-27T14:46:30.061Z,4.72
2023-09-27T14:48:58.602Z,3.80
2023-09-27T14:51:27.295Z,4.10
2023-09-27T14:53:57.134Z,7.28
2023-09-27T14:56:25.609Z,5.90
2023-09-27T14:58:54.068Z,5.65
2023-09-27T15:01:22.594Z,4.95
2023-09-27T15:03:51.429Z,7.97
2023-09-27T15:06:19.935Z,5.35
2023-09-27T15:08:50.523Z,8.63
2023-09-27T15:11:26.077Z,8.80
2023-09-27T15:13:57.417Z,9.25
2023-09-27T15:16:26.241Z,5.72
2023-09-27T15:18:54.763Z,7.50
2023-09-27T15:21:23.295Z,13.35
2023-09-27T15:23:52.224Z,8.10
2023-09-27T15:26:21.898Z,5.65
2023-09-27T15:28:51.833Z,6.63
2023-09-27T15:31:20.336Z,7.85
2023-09-27T15:33:50.580Z,5.60
2023-09-27T15:36:19.096Z,8.00
2023-09-27T15:38:47.560Z,14.93
2023-09-27T15:41:19.778Z,12.43
2023-09-27T15:43:50.781Z,10.73
2023-09-27T15:46:21.177Z,16.35
2023-09-27T15:48:50.457Z,12.55
2023-09-27T15:51:18.954Z,13.60
2023-09-27T15:53:47.389Z,20.25
2023-09-27T15:56:15.917Z,13.50
2023-09-27T15:58:44.372Z,18.45
2023-09-27T16:01:13.379Z,11.05
2023-09-27T16:03:43.511Z,26.90
2023-09-27T16:06:12.002Z,13.18
2023-09-27T16:08:40.447Z,7.45
2023-09-27T16:11:08.982Z,9.90
2023-09-27T16:13:37.553Z,13.32
2023-09-27T16:16:06.253Z,10.20
2023-09-27T16:18:34.858Z,10.90
2023-09-27T16:21:04.717Z,7.78
2023-09-27T16:23:33.351Z,8.85
2023-09-27T16:26:01.926Z,9.23
2023-09-27T16:28:30.529Z,8.63
2023-09-27T16:30:59.633Z,6.43
2023-09-27T16:33:28.339Z,10.82
2023-09-27T16:35:56.844Z,8.57
2023-09-27T16:38:26.887Z,8.80
2023-09-27T16:40:55.372Z,10.50
2023-09-27T16:43:23.884Z,17.42
2023-09-27T16:45:52.441Z,11.97
2023-09-27T16:48:22.245Z,14.53
2023-09-27T16:50:50.768Z,10.40
2023-09-27T16:53:19.293Z,8.27
2023-09-27T16:55:49.765Z,5.70
2023-09-27T16:58:18.265Z,7.50
2023-09-27T17:00:48.105Z,7.23
2023-09-27T17:03:17.176Z,7.97
2023-09-27T17:05:46.485Z,5.90
2023-09-27T17:08:16.772Z,7.93
2023-09-27T17:10:46.109Z,6.17
2023-09-27T17:13:16.003Z,8.67
2023-09-27T17:15:45.269Z,6.53
2023-09-27T17:18:14.794Z,8.30
2023-09-27T17:20:43.327Z,6.53
2023-09-27T17:23:11.790Z,7.30
2023-09-27T17:25:40.245Z,8.93
2023-09-27T17:28:08.767Z,6.17
2023-09-27T17:30:39.553Z,6.27
2023-09-27T17:33:08.128Z,6.23
2023-09-27T17:35:36.623Z,6.63
2023-09-27T17:38:09.708Z,5.77
2023-09-27T17:40:38.228Z,6.97
2023-09-27T17:43:06.839Z,6.70
2023-09-27T17:45:35.483Z,7.47
2023-09-27T17:48:06.018Z,7.33
2023-09-27T17:50:34.501Z,9.37
2023-09-27T17:53:03.012Z,6.47
2023-09-27T17:55:31.518Z,8.57
2023-09-27T17:58:01.092Z,6.27
2023-09-27T18:00:29.806Z,6.00
2023-09-27T18:02:58.440Z,7.03
2023-09-27T18:05:28.376Z,8.17
2023-09-27T18:07:56.943Z,5.93
2023-09-27T18:10:25.460Z,10.13
2023-09-27T18:12:54.643Z,9.00
2023-09-27T18:15:28.396Z,7.67
2023-09-27T18:17:57.434Z,9.17
2023-09-27T18:20:27.330Z,6.43
2023-09-27T18:22:55.873Z,7.10
2023-09-27T18:25:25.688Z,7.63
2023-09-27T18:27:54.681Z,7.10
2023-09-27T18:30:23.303Z,6.83
2023-09-27T18:32:51.880Z,7.70
2023-09-27T18:35:20.630Z,9.20
2023-09-27T18:37:50.505Z,5.87
2023-09-27T18:40:20.458Z,6.97
2023-09-27T18:42:48.944Z,7.33
2023-09-27T18:45:17.526Z,7.97
2023-09-27T18:47:47.485Z,7.43
2023-09-27T18:50:18.306Z,7.73
2023-09-27T18:52:46.864Z,9.90
2023-09-27T18:55:16.996Z,7.63
2023-09-27T18:57:45.441Z,9.30
2023-09-27T19:00:14.615Z,9.37
2023-09-27T19:02:43.158Z,8.67
2023-09-27T19:05:12.102Z,7.43
2023-09-27T19:07:40.635Z,8.10
2023-09-27T19:10:12.351Z,9.90
2023-09-27T19:12:42.205Z,8.07
2023-09-27T19:15:12.024Z,8.57
2023-09-27T19:17:40.944Z,8.53
2023-09-27T19:20:10.894Z,8.80
2023-09-27T19:22:39.467Z,8.20
2023-09-27T19:25:08.499Z,10.27
2023-09-27T19:27:37.171Z,9.27
2023-09-27T19:30:09.752Z,9.27
2023-09-27T19:32:38.287Z,7.80
2023-09-27T19:35:07.304Z,10.80
2023-09-27T19:37:36.201Z,9.30
2023-09-27T19:40:05.337Z,12.53
2023-09-27T19:42:33.808Z,10.30
2023-09-27T19:45:02.295Z,9.73
2023-09-27T19:47:33.200Z,10.00
2023-09-27T19:50:04.618Z,9.93
2023-09-27T19:52:33.948Z,10.57
2023-09-27T19:55:02.717Z,9.67
2023-09-27T19:57:31.607Z,10.03
2023-09-27T20:00:00.127Z,12.53
2023-09-27T20:02:28.744Z,12.37
2023-09-27T20:04:58.731Z,12.40
2023-09-27T20:07:27.360Z,14.87
2023-09-27T20:09:55.838Z,13.00
2023-09-27T20:12:24.303Z,12.30
2023-09-27T20:14:52.819Z,13.97
2023-09-27T20:17:22.116Z,10.87
2023-09-27T20:19:50.609Z,9.90
2023-09-27T20:22:21.020Z,9.50
2023-09-27T20:24:49.527Z,12.97
2023-09-27T20:27:18.004Z,9.73
2023-09-27T20:29:46.492Z,13.30
2023-09-27T20:32:15.118Z,13.27
2023-09-27T20:34:44.008Z,12.77
2023-09-27T20:37:12.643Z,10.80
2023-09-27T20:39:42.586Z,12.23
2023-09-27T20:42:11.074Z,11.17
2023-09-27T20:44:40.163Z,13.73
2023-09-27T20:47:08.703Z,11.23
2023-09-27T20:49:37.332Z,10.67
2023-09-27T20:52:05.988Z,12.60
2023-09-27T20:54:34.508Z,14.77
2023-09-27T20:57:04.589Z,12.23
2023-09-27T20:59:34.981Z,14.27
2023-09-27T21:02:03.466Z,14.00
2023-09-27T21:04:32.012Z,13.33
2023-09-27T21:07:00.540Z,13.20
2023-09-27T21:09:29.785Z,14.30
2023-09-27T21:12:00.283Z,14.27
2023-09-27T21:14:30.068Z,13.07
2023-09-27T21:16:58.565Z,14.23
2023-09-27T21:19:27.076Z,12.77
2023-09-27T21:21:55.559Z,13.77
2023-09-27T21:24:24.055Z,16.93
2023-09-27T21:26:52.928Z,14.77
2023-09-27T21:29:21.445Z,15.10
2023-09-27T21:31:51.419Z,16.73
2023-09-27T21:34:19.995Z,14.40
2023-09-27T21:36:48.437Z,15.33
2023-09-27T21:39:18.994Z,13.53
2023-09-27T21:41:47.474Z,14.83
2023-09-27T21:44:15.995Z,14.00
2023-09-27T21:46:44.534Z,14.83
2023-09-27T21:49:14.390Z,14.53
2023-09-27T21:51:42.842Z,17.10
2023-09-27T21:54:11.298Z,14.53
2023-09-27T21:56:40.315Z,14.37
2023-09-27T21:59:08.881Z,17.23
2023-09-27T22:01:38.037Z,15.63
2023-09-27T22:04:07.502Z,13.20
2023-09-27T22:06:37.366Z,13.97
2023-09-27T22:09:06.024Z,17.47
2023-09-27T22:11:34.636Z,15.27
2023-09-27T22:14:05.891Z,15.13
2023-09-27T22:16:35.123Z,16.83
2023-09-27T22:19:11.810Z,16.03
2023-09-27T22:21:47.162Z,14.23
2023-09-27T22:24:22.132Z,15.63
2023-09-27T22:26:52.326Z,16.53
2023-09-27T22:29:21.067Z,15.80
2023-09-27T22:31:49.673Z,18.17
2023-09-27T22:34:24.541Z,15.30
2023-09-27T22:37:01.171Z,17.10
2023-09-27T22:39:32.473Z,15.37
2023-09-27T22:42:03.646Z,14.20
2023-09-27T22:44:34.102Z,14.47
2023-09-27T22:47:02.742Z,15.37
2023-09-27T22:49:31.244Z,13.87
2023-09-27T22:52:01.048Z,16.13
2023-09-27T22:54:29.633Z,20.17
2023-09-27T22:56:58.070Z,14.17
2023-09-27T22:59:26.546Z,13.77
2023-09-27T23:01:57.078Z,12.90
2023-09-27T23:04:25.964Z,14.93
2023-09-27T23:07:05.340Z,14.00
2023-09-27T23:09:37.228Z,14.97
2023-09-27T23:12:20.106Z,12.33
2023-09-27T23:15:06.692Z,13.07
2023-09-27T23:17:57.576Z,13.13
2023-09-27T23:20:30.284Z,12.70
2023-09-27T23:23:06.635Z,13.37
2023-09-27T23:25:53.656Z,20.20
2023-09-27T23:28:40.614Z,12.73
2023-09-27T23:31:09.970Z,16.60
2023-09-27T23:33:42.945Z,13.10
2023-09-27T23:36:24.153Z,12.87
2023-09-27T23:38:59.372Z,12.77
2023-09-27T23:41:31.764Z,11.40
2023-09-27T23:44:05.618Z,11.17
2023-09-27T23:46:39.578Z,13.00
2023-09-27T23:49:08.555Z,11.50
2023-09-27T23:51:37.072Z,11.07
2023-09-27T23:54:07.814Z,11.77
2023-09-27T23:56:37.918Z,13.83
2023-09-27T23:59:09.648Z,12.43
